createdAt,value
2023-08-15T00:00:22.929Z,100.00
2023-08-15T00:03:12.272Z,100.00
2023-08-15T00:05:41.389Z,100.00
2023-08-15T00:08:09.505Z,100.00
2023-08-15T00:10:37.513Z,100.00
2023-08-15T00:13:05.692Z,100.00
2023-08-15T00:15:33.807Z,100.00
2023-08-15T00:18:02.472Z,100.00
2023-08-15T00:20:31.128Z,100.00
2023-08-15T00:22:59.516Z,100.00
2023-08-15T00:25:27.632Z,100.00
2023-08-15T00:27:55.710Z,100.00
2023-08-15T00:30:23.708Z,100.00
2023-08-15T00:32:51.819Z,100.00
2023-08-15T00:35:19.959Z,100.00
2023-08-15T00:37:48.054Z,100.00
2023-08-15T00:40:16.346Z,100.00
2023-08-15T00:42:44.528Z,100.00
2023-08-15T00:45:12.684Z,100.00
2023-08-15T00:47:41.064Z,100.00
2023-08-15T00:50:11.010Z,100.00
2023-08-15T00:52:40.647Z,100.00
2023-08-15T00:55:11.230Z,100.00
2023-08-15T00:57:39.497Z,100.00
2023-08-15T01:00:09.233Z,100.00
2023-08-15T01:02:37.830Z,100.00
2023-08-15T01:05:09.049Z,100.00
2023-08-15T01:07:38.265Z,100.00
2023-08-15T01:10:07.165Z,100.00
2023-08-15T01:13:03.521Z,100.00
2023-08-15T01:15:35.146Z,100.00
2023-08-15T01:18:11.844Z,100.00
2023-08-15T01:20:40.680Z,100.00
2023-08-15T01:23:11.954Z,100.00
2023-08-15T01:25:42.439Z,100.00
2023-08-15T01:28:14.238Z,100.00
2023-08-15T01:30:51.000Z,100.00
2023-08-15T01:33:40.005Z,100.00
2023-08-15T01:36:20.240Z,100.00
2023-08-15T01:38:55.470Z,100.00
2023-08-15T01:41:26.263Z,100.00
2023-08-15T01:43:55.676Z,100.00
2023-08-15T01:46:24.997Z,100.00
2023-08-15T01:48:53.213Z,100.00
2023-08-15T01:51:21.854Z,100.00
2023-08-15T01:53:50.504Z,100.00
2023-08-15T01:56:18.752Z,100.00
2023-08-15T01:58:47.583Z,100.00
2023-08-15T02:01:15.651Z,100.00
2023-08-15T02:03:44.040Z,100.00
2023-08-15T02:06:12.562Z,100.00
2023-08-15T02:08:41.894Z,100.00
2023-08-15T02:11:09.929Z,100.00
2023-08-15T02:13:38.068Z,100.00
2023-08-15T02:16:06.333Z,100.00
2023-08-15T02:18:34.438Z,100.00
2023-08-15T02:21:02.497Z,100.00
2023-08-15T02:23:30.477Z,100.00
2023-08-15T02:25:58.462Z,100.00
2023-08-15T02:28:28.677Z,100.00
2023-08-15T02:30:56.739Z,100.00
2023-08-15T02:33:26.824Z,100.00
2023-08-15T02:35:55.125Z,100.00
2023-08-15T02:38:25.372Z,100.00
2023-08-15T02:40:53.490Z,100.00
2023-08-15T02:43:21.649Z,100.00
2023-08-15T02:45:49.665Z,100.00
2023-08-15T02:48:20.456Z,100.00
2023-08-15T02:50:48.522Z,100.00
2023-08-15T02:53:16.909Z,100.00
2023-08-15T02:55:44.952Z,100.00
2023-08-15T02:58:13.027Z,100.00
2023-08-15T03:00:41.307Z,100.00
2023-08-15T03:03:09.632Z,100.00
2023-08-15T03:05:39.023Z,100.00
2023-08-15T03:08:07.092Z,100.00
2023-08-15T03:10:37.693Z,100.00
2023-08-15T03:13:05.992Z,100.00
2023-08-15T03:15:35.532Z,100.00
2023-08-15T03:18:04.568Z,100.00
2023-08-15T03:20:33.430Z,100.00
2023-08-15T03:23:01.884Z,100.00
2023-08-15T03:25:32.256Z,100.00
2023-08-15T03:28:01.546Z,100.00
2023-08-15T03:30:32.375Z,100.00
2023-08-15T03:33:01.199Z,100.00
2023-08-15T03:35:29.322Z,100.00
2023-08-15T03:37:57.432Z,100.00
2023-08-15T03:40:27.716Z,100.00
2023-08-15T03:42:56.416Z,100.00
2023-08-15T03:45:24.983Z,100.00
2023-08-15T03:47:54.306Z,100.00
2023-08-15T03:50:22.341Z,100.00
2023-08-15T03:52:52.656Z,100.00
2023-08-15T03:55:22.988Z,100.00
2023-08-15T03:57:51.091Z,100.00
2023-08-15T04:00:22.718Z,100.00
2023-08-15T04:02:51.079Z,100.00
2023-08-15T04:05:19.822Z,100.00
2023-08-15T04:07:47.982Z,100.00
2023-08-15T04:10:16.365Z,100.00
2023-08-15T04:12:45.806Z,100.00
2023-08-15T04:15:13.996Z,100.00
2023-08-15T04:17:43.486Z,100.00
2023-08-15T04:20:13.905Z,100.00
2023-08-15T04:22:43.238Z,100.00
2023-08-15T04:25:11.447Z,100.00
2023-08-15T04:27:39.703Z,100.00
2023-08-15T04:30:09.790Z,100.00
2023-08-15T04:32:37.905Z,100.00
2023-08-15T04:35:07.479Z,100.00
2023-08-15T04:37:36.472Z,100.00
2023-08-15T04:40:04.865Z,100.00
2023-08-15T04:42:32.981Z,100.00
2023-08-15T04:45:02.969Z,100.00
2023-08-15T04:47:31.193Z,100.00
2023-08-15T04:49:59.297Z,100.00
2023-08-15T04:52:28.085Z,100.00
2023-08-15T04:54:56.262Z,100.00
2023-08-15T04:57:24.375Z,100.00
2023-08-15T04:59:52.543Z,100.00
2023-08-15T05:02:20.683Z,100.00
2023-08-15T05:04:50.812Z,100.00
2023-08-15T05:07:19.262Z,100.00
2023-08-15T05:09:48.752Z,100.00
2023-08-15T05:12:19.730Z,100.00
2023-08-15T05:14:47.727Z,100.00
2023-08-15T05:17:15.860Z,100.00
2023-08-15T05:19:44.613Z,100.00
2023-08-15T05:22:12.829Z,100.00
2023-08-15T05:24:40.938Z,100.00
2023-08-15T05:27:12.905Z,100.00
2023-08-15T05:29:43.003Z,100.00
2023-08-15T05:32:11.435Z,100.00
2023-08-15T05:34:39.809Z,100.00
2023-08-15T05:37:08.037Z,100.00
2023-08-15T05:39:36.381Z,100.00
2023-08-15T05:42:04.902Z,100.00
2023-08-15T05:44:33.067Z,100.00
2023-08-15T05:47:01.314Z,100.00
2023-08-15T05:49:29.380Z,100.00
2023-08-15T05:51:57.967Z,100.00
2023-08-15T05:54:26.070Z,100.00
2023-08-15T05:56:54.870Z,100.00
2023-08-15T05:59:23.218Z,100.00
2023-08-15T06:01:51.470Z,100.00
2023-08-15T06:04:21.206Z,100.00
2023-08-15T06:06:49.346Z,100.00
2023-08-15T06:09:18.786Z,100.00
2023-08-15T06:11:47.256Z,100.00
2023-08-15T06:14:15.637Z,100.00
2023-08-15T06:16:43.989Z,100.00
2023-08-15T06:19:13.243Z,100.00
2023-08-15T06:21:42.912Z,100.00
2023-08-15T06:24:13.698Z,100.00
2023-08-15T06:26:43.949Z,100.00
2023-08-15T06:29:12.151Z,100.00
2023-08-15T06:31:40.444Z,100.00
2023-08-15T06:34:08.964Z,100.00
2023-08-15T06:36:36.983Z,100.00
2023-08-15T06:39:05.192Z,100.00
2023-08-15T06:41:34.917Z,100.00
2023-08-15T06:44:03.882Z,100.00
2023-08-15T06:46:32.163Z,100.00
2023-08-15T06:49:02.849Z,100.00
2023-08-15T06:51:31.037Z,100.00
2023-08-15T06:54:00.427Z,100.00
2023-08-15T06:56:28.814Z,100.00
2023-08-15T06:58:57.327Z,100.00
2023-08-15T07:01:28.253Z,100.00
2023-08-15T07:03:57.707Z,100.00
2023-08-15T07:06:26.559Z,100.00
2023-08-15T07:08:57.044Z,100.00
2023-08-15T07:11:25.475Z,100.00
2023-08-15T07:13:53.627Z,100.00
2023-08-15T07:16:24.559Z,100.00
2023-08-15T07:18:53.923Z,100.00
2023-08-15T07:21:24.672Z,100.00
2023-08-15T07:23:52.710Z,100.00
2023-08-15T07:26:20.873Z,100.00
2023-08-15T07:28:48.984Z,100.00
2023-08-15T07:31:17.098Z,100.00
2023-08-15T07:33:46.697Z,100.00
2023-08-15T07:36:15.336Z,100.00
2023-08-15T07:38:45.400Z,100.00
2023-08-15T07:41:13.351Z,100.00
2023-08-15T07:43:42.814Z,100.00
2023-08-15T07:46:12.555Z,100.00
2023-08-15T07:48:41.200Z,100.00
2023-08-15T07:51:09.578Z,100.00
2023-08-15T07:53:37.864Z,100.00
2023-08-15T07:56:07.009Z,99.52
2023-08-15T07:58:36.600Z,98.09
2023-08-15T08:01:05.345Z,96.61
2023-08-15T08:03:33.640Z,95.83
2023-08-15T08:06:03.922Z,92.83
2023-08-15T08:08:36.417Z,89.93
2023-08-15T08:11:04.595Z,89.28
2023-08-15T08:13:32.678Z,89.29
2023-08-15T08:16:01.442Z,88.03
2023-08-15T08:18:30.260Z,86.55
2023-08-15T08:20:58.728Z,86.44
2023-08-15T08:23:26.908Z,87.53
2023-08-15T08:25:54.923Z,87.78
2023-08-15T08:28:26.930Z,87.01
2023-08-15T08:30:55.074Z,89.30
2023-08-15T08:33:23.141Z,85.37
2023-08-15T08:35:52.011Z,83.55
2023-08-15T08:38:20.852Z,83.79
2023-08-15T08:40:49.579Z,83.28
2023-08-15T08:43:19.900Z,83.18
2023-08-15T08:45:55.707Z,79.62
2023-08-15T08:48:24.601Z,76.09
2023-08-15T08:50:54.329Z,74.89
2023-08-15T08:53:22.444Z,70.05
2023-08-15T08:55:53.833Z,69.70
2023-08-15T08:58:25.809Z,65.84
2023-08-15T09:00:55.067Z,58.94
2023-08-15T09:03:23.301Z,56.64
2023-08-15T09:05:51.716Z,55.84
2023-08-15T09:08:20.256Z,57.01
2023-08-15T09:10:48.529Z,55.36
2023-08-15T09:13:24.165Z,52.06
2023-08-15T09:15:57.024Z,50.20
2023-08-15T09:18:28.192Z,48.60
2023-08-15T09:20:57.898Z,48.34
2023-08-15T09:23:26.694Z,47.67
2023-08-15T09:25:57.270Z,47.16
2023-08-15T09:28:25.545Z,47.25
2023-08-15T09:30:54.637Z,47.49
2023-08-15T09:33:30.132Z,47.66
2023-08-15T09:35:59.467Z,47.09
2023-08-15T09:38:29.031Z,46.40
2023-08-15T09:40:58.498Z,45.82
2023-08-15T09:43:27.685Z,45.49
2023-08-15T09:45:59.287Z,45.44
2023-08-15T09:48:31.543Z,44.74
2023-08-15T09:51:03.464Z,44.16
2023-08-15T09:53:34.042Z,42.67
2023-08-15T09:56:02.121Z,41.26
2023-08-15T09:58:30.185Z,42.18
2023-08-15T10:00:59.581Z,42.20
2023-08-15T10:03:28.528Z,42.01
2023-08-15T10:05:59.222Z,41.99
2023-08-15T10:08:28.687Z,40.86
2023-08-15T10:10:59.936Z,40.60
2023-08-15T10:13:48.451Z,40.54
2023-08-15T10:16:16.991Z,40.80
2023-08-15T10:18:55.821Z,40.87
2023-08-15T10:21:30.315Z,41.34
2023-08-15T10:24:08.472Z,40.70
2023-08-15T10:26:41.358Z,40.89
2023-08-15T10:29:10.676Z,40.01
2023-08-15T10:31:41.546Z,39.33
2023-08-15T10:34:20.196Z,39.09
2023-08-15T10:37:11.050Z,39.29
2023-08-15T10:39:39.681Z,39.04
2023-08-15T10:42:07.987Z,39.06
2023-08-15T10:44:39.075Z,38.73
2023-08-15T10:47:23.843Z,38.63
2023-08-15T10:49:54.420Z,38.60
2023-08-15T10:52:22.937Z,38.75
2023-08-15T10:54:52.898Z,39.22
2023-08-15T10:57:23.460Z,40.00
2023-08-15T10:59:55.048Z,40.66
2023-08-15T11:02:23.528Z,41.11
2023-08-15T11:04:51.697Z,41.77
2023-08-15T11:07:27.368Z,42.70
2023-08-15T11:09:55.637Z,43.45
2023-08-15T11:12:25.318Z,44.09
2023-08-15T11:14:58.201Z,44.55
2023-08-15T11:17:27.099Z,45.21
2023-08-15T11:19:55.343Z,45.75
2023-08-15T11:22:23.808Z,46.48
2023-08-15T11:24:52.354Z,47.13
2023-08-15T11:27:20.865Z,47.27
2023-08-15T11:30:00.011Z,49.57
2023-08-15T11:32:28.578Z,52.04
2023-08-15T11:34:57.328Z,53.25
2023-08-15T11:37:26.083Z,55.23
2023-08-15T11:39:56.109Z,56.13
2023-08-15T11:42:40.289Z,55.81
2023-08-15T11:45:25.148Z,56.25
2023-08-15T11:47:57.375Z,57.10
2023-08-15T11:50:42.153Z,58.46
2023-08-15T11:53:18.934Z,58.98
2023-08-15T11:55:48.298Z,59.12
2023-08-15T11:58:22.489Z,59.03
2023-08-15T12:01:16.691Z,60.47
2023-08-15T12:03:45.320Z,62.17
2023-08-15T12:06:15.989Z,63.42
2023-08-15T12:08:47.052Z,62.68
2023-08-15T12:11:20.515Z,62.40
2023-08-15T12:13:48.789Z,61.73
2023-08-15T12:16:17.082Z,63.25
2023-08-15T12:18:45.529Z,64.07
2023-08-15T12:21:14.937Z,65.26
2023-08-15T12:23:44.295Z,74.09
2023-08-15T12:26:12.379Z,75.99
2023-08-15T12:28:40.945Z,76.35
2023-08-15T12:31:09.570Z,73.80
2023-08-15T12:33:46.852Z,73.35
2023-08-15T12:36:16.406Z,72.68
2023-08-15T12:38:44.929Z,74.60
2023-08-15T12:41:15.380Z,75.59
2023-08-15T12:43:43.913Z,74.70
2023-08-15T12:46:12.012Z,74.64
2023-08-15T12:48:40.412Z,75.31
2023-08-15T12:51:08.606Z,75.43
2023-08-15T12:53:37.485Z,80.04
2023-08-15T12:56:06.285Z,83.86
2023-08-15T12:58:34.595Z,85.80
2023-08-15T13:01:03.822Z,84.93
2023-08-15T13:03:34.150Z,78.91
2023-08-15T13:06:03.929Z,85.60
2023-08-15T13:08:33.069Z,87.40
2023-08-15T13:11:01.255Z,85.26
2023-08-15T13:13:29.867Z,79.86
2023-08-15T13:15:57.901Z,78.64
2023-08-15T13:18:26.090Z,70.52
2023-08-15T13:20:54.898Z,64.38
2023-08-15T13:23:23.654Z,60.47
2023-08-15T13:25:51.798Z,55.64
2023-08-15T13:28:20.717Z,54.18
2023-08-15T13:30:49.036Z,52.70
2023-08-15T13:33:18.235Z,51.85
2023-08-15T13:35:46.817Z,53.05
2023-08-15T13:38:17.196Z,54.26
2023-08-15T13:40:46.440Z,55.00
2023-08-15T13:43:16.059Z,57.68
2023-08-15T13:45:45.413Z,60.95
2023-08-15T13:48:13.534Z,65.27
2023-08-15T13:50:41.767Z,68.59
2023-08-15T13:53:12.664Z,72.33
2023-08-15T13:55:40.715Z,73.04
2023-08-15T13:58:10.760Z,72.20
2023-08-15T14:00:40.314Z,70.84
2023-08-15T14:03:09.134Z,70.44
2023-08-15T14:05:37.745Z,69.73
2023-08-15T14:08:07.739Z,71.78
2023-08-15T14:10:36.570Z,73.24
2023-08-15T14:13:05.231Z,71.75
2023-08-15T14:15:34.734Z,67.62
2023-08-15T14:18:03.305Z,63.69
2023-08-15T14:20:34.762Z,62.12
2023-08-15T14:23:05.303Z,61.70
2023-08-15T14:25:33.814Z,62.26
2023-08-15T14:28:03.109Z,62.21
2023-08-15T14:30:32.374Z,61.15
2023-08-15T14:33:00.506Z,61.57
2023-08-15T14:35:28.785Z,60.02
2023-08-15T14:37:56.944Z,58.14
2023-08-15T14:40:25.540Z,58.68
2023-08-15T14:42:54.086Z,59.07
2023-08-15T14:45:23.294Z,57.82
2023-08-15T14:47:52.026Z,55.33
2023-08-15T14:50:20.162Z,53.84
2023-08-15T14:52:48.279Z,52.47
2023-08-15T14:55:18.668Z,52.28
2023-08-15T14:57:46.768Z,52.67
2023-08-15T15:00:15.788Z,55.93
2023-08-15T15:02:44.225Z,57.25
2023-08-15T15:05:12.717Z,53.38
2023-08-15T15:07:40.846Z,52.34
2023-08-15T15:10:09.362Z,51.75
2023-08-15T15:12:38.288Z,50.89
2023-08-15T15:15:07.441Z,50.46
2023-08-15T15:17:35.904Z,50.70
2023-08-15T15:20:06.763Z,51.13
2023-08-15T15:22:35.050Z,52.06
2023-08-15T15:25:04.797Z,52.43
2023-08-15T15:27:32.959Z,52.12
2023-08-15T15:30:01.543Z,52.17
2023-08-15T15:32:30.501Z,52.73
2023-08-15T15:34:58.612Z,52.33
2023-08-15T15:37:27.730Z,50.63
2023-08-15T15:39:56.398Z,48.29
2023-08-15T15:42:25.173Z,45.30
2023-08-15T15:44:54.064Z,44.43
2023-08-15T15:47:23.522Z,44.45
2023-08-15T15:49:51.897Z,43.77
2023-08-15T15:52:20.446Z,42.66
2023-08-15T15:54:48.809Z,41.46
2023-08-15T15:57:18.140Z,41.14
2023-08-15T15:59:47.481Z,40.69
2023-08-15T16:02:15.644Z,40.16
2023-08-15T16:04:47.754Z,40.41
2023-08-15T16:07:16.760Z,39.93
2023-08-15T16:09:46.052Z,40.51
2023-08-15T16:12:14.880Z,42.43
2023-08-15T16:14:43.574Z,44.32
2023-08-15T16:17:13.117Z,43.96
2023-08-15T16:19:41.159Z,43.30
2023-08-15T16:22:09.763Z,42.71
2023-08-15T16:24:38.048Z,42.56
2023-08-15T16:27:09.068Z,42.96
2023-08-15T16:29:37.235Z,44.18
2023-08-15T16:32:06.573Z,45.22
2023-08-15T16:34:34.835Z,47.98
2023-08-15T16:37:02.929Z,51.98
2023-08-15T16:39:31.114Z,53.40
2023-08-15T16:42:01.119Z,54.02
2023-08-15T16:44:30.121Z,59.41
2023-08-15T16:46:58.264Z,63.34
2023-08-15T16:49:27.240Z,65.65
2023-08-15T16:51:56.056Z,70.60
2023-08-15T16:54:24.420Z,72.54
2023-08-15T16:56:52.452Z,73.80
2023-08-15T16:59:20.528Z,77.21
2023-08-15T17:01:48.950Z,78.17
2023-08-15T17:04:17.426Z,79.80
2023-08-15T17:06:45.501Z,82.73
2023-08-15T17:09:13.688Z,82.22
2023-08-15T17:11:41.747Z,86.79
2023-08-15T17:14:09.908Z,88.36
2023-08-15T17:16:40.877Z,89.36
2023-08-15T17:19:09.825Z,88.87
2023-08-15T17:21:39.740Z,93.77
2023-08-15T17:24:09.721Z,96.92
2023-08-15T17:26:39.246Z,99.31
2023-08-15T17:29:07.385Z,100.00
2023-08-15T17:31:37.490Z,96.39
2023-08-15T17:34:05.562Z,100.00
2023-08-15T17:36:33.721Z,99.77
2023-08-15T17:39:02.681Z,100.00
2023-08-15T17:41:30.954Z,100.00
2023-08-15T17:43:59.108Z,100.00
2023-08-15T17:46:27.513Z,100.00
2023-08-15T17:48:55.988Z,100.00
2023-08-15T17:51:24.059Z,100.00
2023-08-15T17:53:52.179Z,100.00
2023-08-15T17:56:20.839Z,100.00
2023-08-15T17:58:52.302Z,100.00
2023-08-15T18:01:20.855Z,100.00
2023-08-15T18:03:49.396Z,100.00
2023-08-15T18:06:17.722Z,100.00
2023-08-15T18:08:45.896Z,100.00
2023-08-15T18:11:15.307Z,100.00
2023-08-15T18:13:43.489Z,100.00
2023-08-15T18:16:12.351Z,100.00
2023-08-15T18:18:40.907Z,100.00
2023-08-15T18:21:09.191Z,100.00
2023-08-15T18:23:39.031Z,100.00
2023-08-15T18:26:09.384Z,100.00
2023-08-15T18:28:37.573Z,100.00
2023-08-15T18:31:08.717Z,100.00
2023-08-15T18:33:36.858Z,100.00
2023-08-15T18:36:06.268Z,100.00
2023-08-15T18:38:34.373Z,100.00
2023-08-15T18:41:02.444Z,100.00
2023-08-15T18:43:31.690Z,100.00
2023-08-15T18:46:01.857Z,100.00
2023-08-15T18:48:30.089Z,100.00
2023-08-15T18:50:58.263Z,100.00
2023-08-15T18:53:26.378Z,100.00
2023-08-15T18:55:54.444Z,100.00
2023-08-15T18:58:22.687Z,100.00
2023-08-15T19:00:50.784Z,100.00
2023-08-15T19:03:20.241Z,100.00
2023-08-15T19:05:49.500Z,100.00
2023-08-15T19:08:17.671Z,100.00
2023-08-15T19:10:48.308Z,100.00
2023-08-15T19:13:22.462Z,100.00
2023-08-15T19:15:51.292Z,100.00
2023-08-15T19:18:19.541Z,100.00
2023-08-15T19:20:47.547Z,100.00
2023-08-15T19:23:16.284Z,100.00
2023-08-15T19:25:44.366Z,100.00
2023-08-15T19:28:12.505Z,100.00
2023-08-15T19:30:42.877Z,100.00
2023-08-15T19:33:11.191Z,100.00
2023-08-15T19:35:39.698Z,100.00
2023-08-15T19:38:07.843Z,100.00
2023-08-15T19:40:36.252Z,100.00
2023-08-15T19:43:04.478Z,100.00
2023-08-15T19:45:32.580Z,100.00
2023-08-15T19:48:00.600Z,100.00
2023-08-15T19:50:30.276Z,100.00
2023-08-15T19:52:58.624Z,100.00
2023-08-15T19:55:31.542Z,100.00
2023-08-15T19:58:00.733Z,100.00
2023-08-15T20:00:28.883Z,100.00
2023-08-15T20:02:57.190Z,100.00
2023-08-15T20:05:25.510Z,100.00
2023-08-15T20:07:53.603Z,100.00
2023-08-15T20:10:21.725Z,100.00
2023-08-15T20:12:49.832Z,100.00
2023-08-15T20:15:17.957Z,100.00
2023-08-15T20:17:48.316Z,100.00
2023-08-15T20:20:16.599Z,100.00
2023-08-15T20:22:45.251Z,100.00
2023-08-15T20:25:14.627Z,100.00
2023-08-15T20:27:43.389Z,100.00
2023-08-15T20:30:12.309Z,100.00
2023-08-15T20:32:40.716Z,100.00
2023-08-15T20:35:11.414Z,100.00
2023-08-15T20:37:39.581Z,100.00
2023-08-15T20:40:12.871Z,100.00
2023-08-15T20:42:41.982Z,100.00
2023-08-15T20:45:15.121Z,100.00
2023-08-15T20:47:43.712Z,100.00
2023-08-15T20:50:11.999Z,100.00
2023-08-15T20:52:40.560Z,100.00
2023-08-15T20:55:12.544Z,100.00
2023-08-15T20:57:43.179Z,100.00
2023-08-15T21:00:13.633Z,100.00
2023-08-15T21:02:41.971Z,100.00
2023-08-15T21:05:11.029Z,100.00
2023-08-15T21:07:40.271Z,100.00
2023-08-15T21:10:08.849Z,100.00
2023-08-15T21:12:37.184Z,100.00
2023-08-15T21:15:06.087Z,100.00
2023-08-15T21:17:34.354Z,100.00
2023-08-15T21:20:02.437Z,100.00
2023-08-15T21:22:31.478Z,100.00
2023-08-15T21:24:59.582Z,100.00
2023-08-15T21:27:31.045Z,100.00
2023-08-15T21:29:59.278Z,100.00
2023-08-15T21:32:28.408Z,100.00
2023-08-15T21:34:56.645Z,100.00
2023-08-15T21:37:25.947Z,100.00
2023-08-15T21:39:54.077Z,100.00
2023-08-15T21:42:22.123Z,100.00
2023-08-15T21:44:50.369Z,100.00
2023-08-15T21:47:18.602Z,100.00
2023-08-15T21:49:46.965Z,100.00
2023-08-15T21:52:15.153Z,100.00
2023-08-15T21:54:43.560Z,100.00
2023-08-15T21:57:11.640Z,100.00
2023-08-15T21:59:39.746Z,100.00
2023-08-15T22:02:09.209Z,100.00
2023-08-15T22:04:37.484Z,100.00
2023-08-15T22:07:05.595Z,100.00
2023-08-15T22:09:33.999Z,100.00
2023-08-15T22:12:02.046Z,100.00
2023-08-15T22:14:30.634Z,100.00
2023-08-15T22:16:58.816Z,100.00
2023-08-15T22:19:27.012Z,100.00
2023-08-15T22:21:55.625Z,100.00
2023-08-15T22:24:24.924Z,100.00
2023-08-15T22:26:53.181Z,100.00
2023-08-15T22:29:21.280Z,100.00
2023-08-15T22:31:49.487Z,100.00
2023-08-15T22:34:18.465Z,100.00
2023-08-15T22:36:48.633Z,100.00
2023-08-15T22:39:17.246Z,100.00
2023-08-15T22:41:45.368Z,100.00
2023-08-15T22:44:13.369Z,100.00
2023-08-15T22:46:41.556Z,100.00
2023-08-15T22:49:10.099Z,100.00
2023-08-15T22:51:38.189Z,100.00
2023-08-15T22:54:06.723Z,100.00
2023-08-15T22:56:35.754Z,100.00
2023-08-15T22:59:04.365Z,100.00
2023-08-15T23:01:32.564Z,100.00
2023-08-15T23:04:00.766Z,100.00
2023-08-15T23:06:29.867Z,100.00
2023-08-15T23:08:57.845Z,100.00
2023-08-15T23:11:28.999Z,100.00
2023-08-15T23:13:57.290Z,100.00
2023-08-15T23:16:25.328Z,100.00
2023-08-15T23:18:53.333Z,100.00
2023-08-15T23:21:21.404Z,100.00
2023-08-15T23:23:50.210Z,100.00
2023-08-15T23:26:18.296Z,100.00
2023-08-15T23:28:46.250Z,100.00
2023-08-15T23:31:14.473Z,100.00
2023-08-15T23:33:45.258Z,100.00
2023-08-15T23:36:14.420Z,100.00
2023-08-15T23:38:42.583Z,100.00
2023-08-15T23:41:10.615Z,100.00
2023-08-15T23:43:38.921Z,100.00
2023-08-15T23:46:06.969Z,100.00
2023-08-15T23:48:35.038Z,100.00
2023-08-15T23:51:03.102Z,100.00
2023-08-15T23:53:31.257Z,100.00
2023-08-15T23:55:59.352Z,100.00
2023-08-15T23:58:27.934Z,100.00
